sensor_id;sensor_type;location;lat;lon;timestamp;P1;durP1;ratioP1;P2;durP2;ratioP2
48627;SDS011;34424;52.234;6.500;2022-12-29T00:02:40;2.90;;;2.65;;
48627;SDS011;34424;52.234;6.500;2022-12-29T00:07:44;3.08;;;2.75;;
48627;SDS011;34424;52.234;6.500;2022-12-29T00:12:46;4.35;;;2.72;;
48627;SDS011;34424;52.234;6.500;2022-12-29T00:18:03;3.22;;;2.58;;
48627;SDS011;34424;52.234;6.500;2022-12-29T00:23:07;3.50;;;3.20;;
48627;SDS011;34424;52.234;6.500;2022-12-29T00:28:27;3.03;;;2.72;;
48627;SDS011;34424;52.234;6.500;2022-12-29T00:33:49;2.97;;;2.50;;
48627;SDS011;34424;52.234;6.500;2022-12-29T00:39:12;4.95;;;3.22;;
48627;SDS011;34424;52.234;6.500;2022-12-29T00:44:33;3.25;;;2.70;;
48627;SDS011;34424;52.234;6.500;2022-12-29T00:49:36;4.50;;;2.65;;
48627;SDS011;34424;52.234;6.500;2022-12-29T00:54:40;3.23;;;2.70;;
48627;SDS011;34424;52.234;6.500;2022-12-29T00:59:45;2.78;;;2.58;;
48627;SDS011;34424;52.234;6.500;2022-12-29T01:04:48;2.87;;;2.60;;
48627;SDS011;34424;52.234;6.500;2022-12-29T01:09:52;3.37;;;2.50;;
48627;SDS011;34424;52.234;6.500;2022-12-29T01:15:13;3.00;;;2.65;;
48627;SDS011;34424;52.234;6.500;2022-12-29T01:20:16;2.50;;;2.30;;
48627;SDS011;34424;52.234;6.500;2022-12-29T01:25:20;3.70;;;2.50;;
48627;SDS011;34424;52.234;6.500;2022-12-29T01:30:23;2.22;;;2.05;;
48627;SDS011;34424;52.234;6.500;2022-12-29T01:35:25;3.40;;;1.97;;
48627;SDS011;34424;52.234;6.500;2022-12-29T01:40:29;3.00;;;2.00;;
48627;SDS011;34424;52.234;6.500;2022-12-29T01:45:32;1.40;;;1.30;;
48627;SDS011;34424;52.234;6.500;2022-12-29T01:50:35;1.67;;;1.57;;
48627;SDS011;34424;52.234;6.500;2022-12-29T01:55:42;1.20;;;1.10;;
48627;SDS011;34424;52.234;6.500;2022-12-29T02:00:45;1.85;;;1.10;;
48627;SDS011;34424;52.234;6.500;2022-12-29T02:05:49;2.30;;;1.17;;
48627;SDS011;34424;52.234;6.500;2022-12-29T02:10:56;4.15;;;1.20;;
48627;SDS011;34424;52.234;6.500;2022-12-29T02:16:01;4.63;;;2.47;;
48627;SDS011;34424;52.234;6.500;2022-12-29T02:21:12;2.63;;;1.60;;
48627;SDS011;34424;52.234;6.500;2022-12-29T02:26:26;2.17;;;2.08;;
48627;SDS011;34424;52.234;6.500;2022-12-29T02:31:34;2.58;;;2.35;;
48627;SDS011;34424;52.234;6.500;2022-12-29T02:36:43;3.05;;;2.67;;
48627;SDS011;34424;52.234;6.500;2022-12-29T02:41:49;3.38;;;3.08;;
48627;SDS011;34424;52.234;6.500;2022-12-29T02:46:58;3.95;;;2.70;;
48627;SDS011;34424;52.234;6.500;2022-12-29T02:52:04;2.95;;;2.30;;
48627;SDS011;34424;52.234;6.500;2022-12-29T02:57:12;3.25;;;2.65;;
48627;SDS011;34424;52.234;6.500;2022-12-29T03:02:22;4.15;;;2.13;;
48627;SDS011;34424;52.234;6.500;2022-12-29T03:07:32;3.10;;;2.05;;
48627;SDS011;34424;52.234;6.500;2022-12-29T03:12:38;3.97;;;2.38;;
48627;SDS011;34424;52.234;6.500;2022-12-29T03:18:02;4.13;;;3.05;;
48627;SDS011;34424;52.234;6.500;2022-12-29T03:23:07;4.95;;;3.10;;
48627;SDS011;34424;52.234;6.500;2022-12-29T03:28:11;4.30;;;2.80;;
48627;SDS011;34424;52.234;6.500;2022-12-29T03:33:16;3.67;;;2.60;;
48627;SDS011;34424;52.234;6.500;2022-12-29T03:38:21;2.58;;;1.45;;
48627;SDS011;34424;52.234;6.500;2022-12-29T03:43:25;3.72;;;2.03;;
48627;SDS011;34424;52.234;6.500;2022-12-29T03:53:32;3.72;;;2.10;;
48627;SDS011;34424;52.234;6.500;2022-12-29T03:58:34;3.53;;;1.73;;
48627;SDS011;34424;52.234;6.500;2022-12-29T04:03:37;3.00;;;1.43;;
48627;SDS011;34424;52.234;6.500;2022-12-29T04:08:41;5.40;;;2.17;;
48627;SDS011;34424;52.234;6.500;2022-12-29T04:13:43;3.50;;;1.75;;
48627;SDS011;34424;52.234;6.500;2022-12-29T04:18:48;4.18;;;1.65;;
48627;SDS011;34424;52.234;6.500;2022-12-29T04:23:52;1.67;;;1.57;;
48627;SDS011;34424;52.234;6.500;2022-12-29T04:28:55;2.58;;;1.52;;
48627;SDS011;34424;52.234;6.500;2022-12-29T04:33:57;2.97;;;1.07;;
48627;SDS011;34424;52.234;6.500;2022-12-29T04:39:02;3.55;;;1.20;;
48627;SDS011;34424;52.234;6.500;2022-12-29T04:44:06;2.65;;;1.20;;
48627;SDS011;34424;52.234;6.500;2022-12-29T04:49:09;1.33;;;1.07;;
48627;SDS011;34424;52.234;6.500;2022-12-29T04:54:12;3.35;;;1.05;;
48627;SDS011;34424;52.234;6.500;2022-12-29T04:59:15;1.55;;;1.35;;
48627;SDS011;34424;52.234;6.500;2022-12-29T05:04:17;1.37;;;1.13;;
48627;SDS011;34424;52.234;6.500;2022-12-29T05:09:21;3.30;;;1.00;;
48627;SDS011;34424;52.234;6.500;2022-12-29T05:14:25;2.13;;;1.33;;
48627;SDS011;34424;52.234;6.500;2022-12-29T05:19:27;0.90;;;0.80;;
48627;SDS011;34424;52.234;6.500;2022-12-29T05:24:31;2.97;;;1.20;;
48627;SDS011;34424;52.234;6.500;2022-12-29T05:29:33;1.48;;;0.82;;
48627;SDS011;34424;52.234;6.500;2022-12-29T05:34:36;1.73;;;1.30;;
48627;SDS011;34424;52.234;6.500;2022-12-29T05:39:40;3.72;;;1.25;;
48627;SDS011;34424;52.234;6.500;2022-12-29T05:44:42;2.88;;;1.60;;
48627;SDS011;34424;52.234;6.500;2022-12-29T05:49:45;4.90;;;1.13;;
48627;SDS011;34424;52.234;6.500;2022-12-29T05:54:48;8.23;;;1.70;;
48627;SDS011;34424;52.234;6.500;2022-12-29T05:59:52;7.40;;;2.50;;
48627;SDS011;34424;52.234;6.500;2022-12-29T06:04:55;3.53;;;1.40;;
48627;SDS011;34424;52.234;6.500;2022-12-29T06:09:59;5.23;;;1.70;;
48627;SDS011;34424;52.234;6.500;2022-12-29T06:15:02;6.03;;;1.40;;
48627;SDS011;34424;52.234;6.500;2022-12-29T06:20:05;4.22;;;1.60;;
48627;SDS011;34424;52.234;6.500;2022-12-29T06:25:09;6.22;;;1.73;;
48627;SDS011;34424;52.234;6.500;2022-12-29T06:30:12;2.60;;;1.20;;
48627;SDS011;34424;52.234;6.500;2022-12-29T06:35:16;6.18;;;1.90;;
48627;SDS011;34424;52.234;6.500;2022-12-29T06:40:20;2.15;;;1.95;;
48627;SDS011;34424;52.234;6.500;2022-12-29T06:45:24;3.50;;;2.53;;
48627;SDS011;34424;52.234;6.500;2022-12-29T06:50:26;4.35;;;2.28;;
48627;SDS011;34424;52.234;6.500;2022-12-29T06:55:31;4.53;;;2.35;;
48627;SDS011;34424;52.234;6.500;2022-12-29T07:00:33;6.05;;;2.67;;
48627;SDS011;34424;52.234;6.500;2022-12-29T07:05:36;3.15;;;1.40;;
48627;SDS011;34424;52.234;6.500;2022-12-29T07:10:39;2.92;;;1.27;;
48627;SDS011;34424;52.234;6.500;2022-12-29T07:15:42;4.80;;;1.95;;
48627;SDS011;34424;52.234;6.500;2022-12-29T07:20:44;4.20;;;1.40;;
48627;SDS011;34424;52.234;6.500;2022-12-29T07:25:49;8.00;;;1.73;;
48627;SDS011;34424;52.234;6.500;2022-12-29T07:30:52;5.32;;;1.38;;
48627;SDS011;34424;52.234;6.500;2022-12-29T07:35:54;6.32;;;1.50;;
48627;SDS011;34424;52.234;6.500;2022-12-29T07:40:58;4.45;;;1.55;;
48627;SDS011;34424;52.234;6.500;2022-12-29T07:46:00;6.00;;;1.85;;
48627;SDS011;34424;52.234;6.500;2022-12-29T07:51:03;7.90;;;1.77;;
48627;SDS011;34424;52.234;6.500;2022-12-29T07:56:07;2.57;;;1.90;;
48627;SDS011;34424;52.234;6.500;2022-12-29T08:01:10;6.60;;;1.90;;
48627;SDS011;34424;52.234;6.500;2022-12-29T08:06:12;7.20;;;2.43;;
48627;SDS011;34424;52.234;6.500;2022-12-29T08:11:16;7.15;;;2.13;;
48627;SDS011;34424;52.234;6.500;2022-12-29T08:16:19;3.00;;;1.60;;
48627;SDS011;34424;52.234;6.500;2022-12-29T08:21:22;9.00;;;2.65;;
48627;SDS011;34424;52.234;6.500;2022-12-29T08:26:26;6.57;;;2.13;;
48627;SDS011;34424;52.234;6.500;2022-12-29T08:31:28;6.68;;;2.10;;
48627;SDS011;34424;52.234;6.500;2022-12-29T08:36:31;6.10;;;2.30;;
48627;SDS011;34424;52.234;6.500;2022-12-29T08:41:35;6.03;;;1.80;;
48627;SDS011;34424;52.234;6.500;2022-12-29T08:46:38;4.15;;;2.05;;
48627;SDS011;34424;52.234;6.500;2022-12-29T08:51:40;4.65;;;1.73;;
48627;SDS011;34424;52.234;6.500;2022-12-29T08:56:46;3.60;;;1.90;;
48627;SDS011;34424;52.234;6.500;2022-12-29T09:01:51;6.95;;;2.20;;
48627;SDS011;34424;52.234;6.500;2022-12-29T09:06:54;6.72;;;2.10;;
48627;SDS011;34424;52.234;6.500;2022-12-29T09:11:58;5.30;;;1.83;;
48627;SDS011;34424;52.234;6.500;2022-12-29T09:17:00;5.10;;;1.63;;
48627;SDS011;34424;52.234;6.500;2022-12-29T09:22:22;11.20;;;2.10;;
48627;SDS011;34424;52.234;6.500;2022-12-29T09:27:28;6.47;;;2.03;;
48627;SDS011;34424;52.234;6.500;2022-12-29T09:32:31;3.72;;;1.70;;
48627;SDS011;34424;52.234;6.500;2022-12-29T09:37:35;8.13;;;3.13;;
48627;SDS011;34424;52.234;6.500;2022-12-29T09:42:41;5.00;;;2.20;;
48627;SDS011;34424;52.234;6.500;2022-12-29T09:47:46;11.82;;;2.03;;
48627;SDS011;34424;52.234;6.500;2022-12-29T09:52:49;6.03;;;1.90;;
48627;SDS011;34424;52.234;6.500;2022-12-29T09:57:55;10.98;;;2.38;;
48627;SDS011;34424;52.234;6.500;2022-12-29T10:02:59;8.60;;;2.00;;
48627;SDS011;34424;52.234;6.500;2022-12-29T10:08:13;9.30;;;2.72;;
48627;SDS011;34424;52.234;6.500;2022-12-29T10:13:30;7.75;;;1.95;;
48627;SDS011;34424;52.234;6.500;2022-12-29T10:18:45;4.88;;;2.20;;
48627;SDS011;34424;52.234;6.500;2022-12-29T10:23:52;7.13;;;1.80;;
48627;SDS011;34424;52.234;6.500;2022-12-29T10:28:57;4.95;;;1.70;;
48627;SDS011;34424;52.234;6.500;2022-12-29T10:34:03;9.85;;;2.50;;
48627;SDS011;34424;52.234;6.500;2022-12-29T10:39:11;4.47;;;1.67;;
48627;SDS011;34424;52.234;6.500;2022-12-29T10:44:17;9.60;;;2.58;;
48627;SDS011;34424;52.234;6.500;2022-12-29T10:49:21;6.97;;;2.17;;
48627;SDS011;34424;52.234;6.500;2022-12-29T10:54:25;5.93;;;1.77;;
48627;SDS011;34424;52.234;6.500;2022-12-29T10:59:33;7.05;;;2.05;;
48627;SDS011;34424;52.234;6.500;2022-12-29T11:04:41;5.97;;;2.22;;
48627;SDS011;34424;52.234;6.500;2022-12-29T11:09:46;3.88;;;1.70;;
48627;SDS011;34424;52.234;6.500;2022-12-29T11:19:54;7.65;;;1.92;;
48627;SDS011;34424;52.234;6.500;2022-12-29T11:25:06;5.32;;;1.70;;
48627;SDS011;34424;52.234;6.500;2022-12-29T11:30:21;5.07;;;2.17;;
48627;SDS011;34424;52.234;6.500;2022-12-29T11:35:36;3.28;;;1.83;;
48627;SDS011;34424;52.234;6.500;2022-12-29T11:40:40;5.63;;;2.20;;
48627;SDS011;34424;52.234;6.500;2022-12-29T11:46:03;6.35;;;2.50;;
48627;SDS011;34424;52.234;6.500;2022-12-29T11:51:08;13.13;;;2.90;;
48627;SDS011;34424;52.234;6.500;2022-12-29T11:56:33;8.95;;;2.50;;
48627;SDS011;34424;52.234;6.500;2022-12-29T12:01:41;9.65;;;2.80;;
48627;SDS011;34424;52.234;6.500;2022-12-29T12:06:47;8.95;;;2.78;;
48627;SDS011;34424;52.234;6.500;2022-12-29T12:11:53;11.75;;;4.15;;
48627;SDS011;34424;52.234;6.500;2022-12-29T12:17:02;10.35;;;3.15;;
48627;SDS011;34424;52.234;6.500;2022-12-29T12:22:10;8.60;;;3.08;;
48627;SDS011;34424;52.234;6.500;2022-12-29T12:27:18;10.93;;;3.35;;
48627;SDS011;34424;52.234;6.500;2022-12-29T12:32:24;12.05;;;3.75;;
48627;SDS011;34424;52.234;6.500;2022-12-29T12:37:50;6.63;;;3.75;;
48627;SDS011;34424;52.234;6.500;2022-12-29T12:43:01;17.70;;;7.15;;
48627;SDS011;34424;52.234;6.500;2022-12-29T12:48:20;13.65;;;5.70;;
48627;SDS011;34424;52.234;6.500;2022-12-29T12:53:40;8.25;;;3.63;;
48627;SDS011;34424;52.234;6.500;2022-12-29T12:58:53;5.38;;;3.08;;
48627;SDS011;34424;52.234;6.500;2022-12-29T13:04:01;5.97;;;3.45;;
48627;SDS011;34424;52.234;6.500;2022-12-29T13:09:13;11.18;;;3.67;;
48627;SDS011;34424;52.234;6.500;2022-12-29T13:14:24;6.50;;;3.08;;
48627;SDS011;34424;52.234;6.500;2022-12-29T13:19:34;4.28;;;2.85;;
48627;SDS011;34424;52.234;6.500;2022-12-29T13:24:50;6.28;;;3.38;;
48627;SDS011;34424;52.234;6.500;2022-12-29T13:29:56;10.57;;;5.03;;
48627;SDS011;34424;52.234;6.500;2022-12-29T13:35:08;14.63;;;9.35;;
48627;SDS011;34424;52.234;6.500;2022-12-29T13:40:31;11.88;;;4.75;;
48627;SDS011;34424;52.234;6.500;2022-12-29T13:45:36;9.98;;;4.00;;
48627;SDS011;34424;52.234;6.500;2022-12-29T13:50:42;13.18;;;5.15;;
48627;SDS011;34424;52.234;6.500;2022-12-29T14:01:10;10.55;;;3.80;;
48627;SDS011;34424;52.234;6.500;2022-12-29T14:06:22;14.05;;;4.72;;
48627;SDS011;34424;52.234;6.500;2022-12-29T14:11:35;9.13;;;5.13;;
48627;SDS011;34424;52.234;6.500;2022-12-29T14:16:42;11.63;;;4.65;;
48627;SDS011;34424;52.234;6.500;2022-12-29T14:21:59;11.75;;;4.60;;
48627;SDS011;34424;52.234;6.500;2022-12-29T14:32:41;8.85;;;4.18;;
48627;SDS011;34424;52.234;6.500;2022-12-29T14:38:14;11.00;;;5.10;;
48627;SDS011;34424;52.234;6.500;2022-12-29T14:43:22;12.60;;;3.55;;
48627;SDS011;34424;52.234;6.500;2022-12-29T14:48:32;15.95;;;4.75;;
48627;SDS011;34424;52.234;6.500;2022-12-29T14:53:43;10.88;;;3.35;;
48627;SDS011;34424;52.234;6.500;2022-12-29T14:58:51;9.38;;;4.25;;
48627;SDS011;34424;52.234;6.500;2022-12-29T15:03:57;9.73;;;4.20;;
48627;SDS011;34424;52.234;6.500;2022-12-29T15:09:04;8.52;;;3.70;;
48627;SDS011;34424;52.234;6.500;2022-12-29T15:19:31;11.88;;;4.50;;
48627;SDS011;34424;52.234;6.500;2022-12-29T15:24:40;7.18;;;2.53;;
48627;SDS011;34424;52.234;6.500;2022-12-29T15:29:55;6.43;;;2.38;;
48627;SDS011;34424;52.234;6.500;2022-12-29T15:35:29;4.18;;;3.17;;
48627;SDS011;34424;52.234;6.500;2022-12-29T15:40:32;7.60;;;2.33;;
48627;SDS011;34424;52.234;6.500;2022-12-29T15:51:21;5.13;;;3.50;;
48627;SDS011;34424;52.234;6.500;2022-12-29T16:01:46;7.10;;;2.90;;
48627;SDS011;34424;52.234;6.500;2022-12-29T16:06:55;7.47;;;3.15;;
48627;SDS011;34424;52.234;6.500;2022-12-29T16:11:58;8.13;;;2.92;;
48627;SDS011;34424;52.234;6.500;2022-12-29T16:22:10;6.38;;;2.90;;
48627;SDS011;34424;52.234;6.500;2022-12-29T16:27:15;8.43;;;3.08;;
48627;SDS011;34424;52.234;6.500;2022-12-29T16:32:22;9.10;;;3.70;;
48627;SDS011;34424;52.234;6.500;2022-12-29T16:37:28;6.25;;;3.00;;
48627;SDS011;34424;52.234;6.500;2022-12-29T16:42:34;9.48;;;2.83;;
48627;SDS011;34424;52.234;6.500;2022-12-29T16:47:38;7.28;;;3.05;;
48627;SDS011;34424;52.234;6.500;2022-12-29T16:52:42;4.70;;;3.17;;
48627;SDS011;34424;52.234;6.500;2022-12-29T16:57:45;10.18;;;3.05;;
48627;SDS011;34424;52.234;6.500;2022-12-29T17:02:49;9.95;;;2.72;;
48627;SDS011;34424;52.234;6.500;2022-12-29T17:07:53;5.32;;;2.50;;
48627;SDS011;34424;52.234;6.500;2022-12-29T17:13:01;11.13;;;2.97;;
48627;SDS011;34424;52.234;6.500;2022-12-29T17:18:04;11.13;;;4.10;;
48627;SDS011;34424;52.234;6.500;2022-12-29T17:23:15;7.13;;;3.10;;
48627;SDS011;34424;52.234;6.500;2022-12-29T17:28:27;8.80;;;3.45;;
48627;SDS011;34424;52.234;6.500;2022-12-29T17:33:32;4.55;;;3.28;;
48627;SDS011;34424;52.234;6.500;2022-12-29T17:38:37;7.57;;;2.85;;
48627;SDS011;34424;52.234;6.500;2022-12-29T17:43:40;4.25;;;2.10;;
48627;SDS011;34424;52.234;6.500;2022-12-29T17:48:44;7.20;;;2.73;;
48627;SDS011;34424;52.234;6.500;2022-12-29T17:53:55;3.80;;;2.70;;
48627;SDS011;34424;52.234;6.500;2022-12-29T17:58:58;7.03;;;2.50;;
48627;SDS011;34424;52.234;6.500;2022-12-29T18:04:00;6.60;;;2.78;;
48627;SDS011;34424;52.234;6.500;2022-12-29T18:09:04;4.90;;;1.90;;
48627;SDS011;34424;52.234;6.500;2022-12-29T18:14:10;5.32;;;1.75;;
48627;SDS011;34424;52.234;6.500;2022-12-29T18:19:13;4.72;;;1.90;;
48627;SDS011;34424;52.234;6.500;2022-12-29T18:24:19;6.15;;;2.08;;
48627;SDS011;34424;52.234;6.500;2022-12-29T18:29:21;4.63;;;2.42;;
48627;SDS011;34424;52.234;6.500;2022-12-29T18:34:25;5.25;;;2.22;;
48627;SDS011;34424;52.234;6.500;2022-12-29T18:39:29;6.10;;;2.22;;
48627;SDS011;34424;52.234;6.500;2022-12-29T18:44:32;4.40;;;1.98;;
48627;SDS011;34424;52.234;6.500;2022-12-29T18:49:34;6.67;;;2.53;;
48627;SDS011;34424;52.234;6.500;2022-12-29T18:54:38;7.00;;;2.17;;
48627;SDS011;34424;52.234;6.500;2022-12-29T18:59:40;8.93;;;3.08;;
48627;SDS011;34424;52.234;6.500;2022-12-29T19:04:43;12.98;;;3.15;;
48627;SDS011;34424;52.234;6.500;2022-12-29T19:09:52;6.40;;;2.75;;
48627;SDS011;34424;52.234;6.500;2022-12-29T19:14:56;9.02;;;3.30;;
48627;SDS011;34424;52.234;6.500;2022-12-29T19:19:59;5.85;;;3.20;;
48627;SDS011;34424;52.234;6.500;2022-12-29T19:25:04;6.10;;;2.72;;
48627;SDS011;34424;52.234;6.500;2022-12-29T19:30:08;12.43;;;4.00;;
48627;SDS011;34424;52.234;6.500;2022-12-29T19:35:10;8.32;;;3.67;;
48627;SDS011;34424;52.234;6.500;2022-12-29T19:40:17;7.75;;;3.20;;
48627;SDS011;34424;52.234;6.500;2022-12-29T19:45:19;8.98;;;3.53;;
48627;SDS011;34424;52.234;6.500;2022-12-29T19:50:22;5.85;;;2.88;;
48627;SDS011;34424;52.234;6.500;2022-12-29T19:55:26;15.38;;;2.92;;
48627;SDS011;34424;52.234;6.500;2022-12-29T20:00:28;6.20;;;3.35;;
48627;SDS011;34424;52.234;6.500;2022-12-29T20:05:31;13.20;;;3.87;;
48627;SDS011;34424;52.234;6.500;2022-12-29T20:10:34;9.45;;;3.42;;
48627;SDS011;34424;52.234;6.500;2022-12-29T20:15:41;6.82;;;3.50;;
48627;SDS011;34424;52.234;6.500;2022-12-29T20:20:43;9.50;;;3.40;;
48627;SDS011;34424;52.234;6.500;2022-12-29T20:25:53;13.65;;;3.25;;
48627;SDS011;34424;52.234;6.500;2022-12-29T20:30:56;11.60;;;3.60;;
48627;SDS011;34424;52.234;6.500;2022-12-29T20:36:04;11.45;;;3.55;;
48627;SDS011;34424;52.234;6.500;2022-12-29T20:41:08;17.73;;;5.45;;
48627;SDS011;34424;52.234;6.500;2022-12-29T20:46:11;9.27;;;3.78;;
48627;SDS011;34424;52.234;6.500;2022-12-29T20:51:20;6.35;;;3.42;;
48627;SDS011;34424;52.234;6.500;2022-12-29T20:56:25;15.63;;;5.50;;
48627;SDS011;34424;52.234;6.500;2022-12-29T21:01:28;12.35;;;3.85;;
48627;SDS011;34424;52.234;6.500;2022-12-29T21:06:30;14.57;;;4.70;;
48627;SDS011;34424;52.234;6.500;2022-12-29T21:11:34;14.50;;;5.20;;
48627;SDS011;34424;52.234;6.500;2022-12-29T21:16:37;12.23;;;4.25;;
48627;SDS011;34424;52.234;6.500;2022-12-29T21:21:40;13.32;;;4.13;;
48627;SDS011;34424;52.234;6.500;2022-12-29T21:26:44;15.67;;;4.57;;
48627;SDS011;34424;52.234;6.500;2022-12-29T21:31:46;12.05;;;4.75;;
48627;SDS011;34424;52.234;6.500;2022-12-29T21:36:49;15.80;;;4.53;;
48627;SDS011;34424;52.234;6.500;2022-12-29T21:41:52;16.35;;;4.97;;
48627;SDS011;34424;52.234;6.500;2022-12-29T21:47:00;18.98;;;5.38;;
48627;SDS011;34424;52.234;6.500;2022-12-29T21:52:03;13.77;;;5.53;;
48627;SDS011;34424;52.234;6.500;2022-12-29T21:57:07;14.30;;;4.50;;
48627;SDS011;34424;52.234;6.500;2022-12-29T22:02:13;11.35;;;4.38;;
48627;SDS011;34424;52.234;6.500;2022-12-29T22:07:35;14.10;;;4.13;;
48627;SDS011;34424;52.234;6.500;2022-12-29T22:12:56;14.02;;;4.20;;
48627;SDS011;34424;52.234;6.500;2022-12-29T22:18:00;11.63;;;3.53;;
48627;SDS011;34424;52.234;6.500;2022-12-29T22:23:03;16.40;;;5.10;;
48627;SDS011;34424;52.234;6.500;2022-12-29T22:28:07;22.40;;;4.60;;
48627;SDS011;34424;52.234;6.500;2022-12-29T22:33:09;15.57;;;4.50;;
48627;SDS011;34424;52.234;6.500;2022-12-29T22:38:12;16.45;;;4.95;;
48627;SDS011;34424;52.234;6.500;2022-12-29T22:43:16;9.75;;;3.97;;
48627;SDS011;34424;52.234;6.500;2022-12-29T22:48:20;12.77;;;4.95;;
48627;SDS011;34424;52.234;6.500;2022-12-29T22:53:22;16.63;;;4.07;;
48627;SDS011;34424;52.234;6.500;2022-12-29T22:58:26;20.52;;;5.05;;
48627;SDS011;34424;52.234;6.500;2022-12-29T23:03:28;21.60;;;4.82;;
48627;SDS011;34424;52.234;6.500;2022-12-29T23:08:31;12.43;;;5.20;;
48627;SDS011;34424;52.234;6.500;2022-12-29T23:13:35;14.18;;;5.05;;
48627;SDS011;34424;52.234;6.500;2022-12-29T23:18:37;12.77;;;4.38;;
48627;SDS011;34424;52.234;6.500;2022-12-29T23:23:40;14.37;;;4.37;;
48627;SDS011;34424;52.234;6.500;2022-12-29T23:28:57;13.90;;;4.88;;
48627;SDS011;34424;52.234;6.500;2022-12-29T23:34:01;23.30;;;4.88;;
48627;SDS011;34424;52.234;6.500;2022-12-29T23:39:04;14.48;;;4.70;;
48627;SDS011;34424;52.234;6.500;2022-12-29T23:44:10;20.60;;;5.05;;
48627;SDS011;34424;52.234;6.500;2022-12-29T23:49:12;7.13;;;3.65;;
48627;SDS011;34424;52.234;6.500;2022-12-29T23:54:15;16.25;;;4.07;;
48627;SDS011;34424;52.234;6.500;2022-12-29T23:59:18;11.48;;;4.72;;
